createdAt,value
2022-11-27T00:01:37.799Z,93.42
2022-11-27T00:04:07.993Z,92.94
2022-11-27T00:06:37.759Z,93.10
2022-11-27T00:09:09.829Z,92.92
2022-11-27T00:11:39.571Z,92.88
2022-11-27T00:14:09.684Z,93.10
2022-11-27T00:16:38.025Z,92.67
2022-11-27T00:19:06.806Z,92.93
2022-11-27T00:21:36.967Z,93.09
2022-11-27T00:24:09.867Z,92.69
2022-11-27T00:26:38.725Z,93.15
2022-11-27T00:29:07.734Z,92.39
2022-11-27T00:31:38.075Z,92.92
2022-11-27T00:34:09.482Z,92.83
2022-11-27T00:36:39.796Z,92.59
2022-11-27T00:39:12.656Z,93.13
2022-11-27T00:41:41.338Z,93.24
2022-11-27T00:44:09.858Z,92.88
2022-11-27T00:46:38.539Z,92.46
2022-11-27T00:49:08.995Z,92.42
2022-11-27T00:51:37.504Z,93.01
2022-11-27T00:54:06.540Z,92.83
2022-11-27T00:56:39.736Z,92.70
2022-11-27T00:59:09.657Z,93.02
2022-11-27T01:01:40.205Z,93.26
2022-11-27T01:04:12.216Z,92.75
2022-11-27T01:06:41.187Z,92.79
2022-11-27T01:09:10.220Z,92.48
2022-11-27T01:11:41.662Z,93.05
2022-11-27T01:14:13.387Z,92.68
2022-11-27T01:16:43.264Z,93.07
2022-11-27T01:19:13.819Z,92.61
2022-11-27T01:21:42.814Z,92.42
2022-11-27T01:24:13.379Z,92.88
2022-11-27T01:26:43.784Z,92.50
2022-11-27T01:29:12.818Z,92.82
2022-11-27T01:31:41.739Z,92.98
2022-11-27T01:34:18.078Z,93.01
2022-11-27T01:36:47.139Z,92.49
2022-11-27T01:39:17.889Z,92.61
2022-11-27T01:41:49.178Z,92.44
2022-11-27T01:44:40.079Z,92.66
2022-11-27T01:47:14.836Z,92.81
2022-11-27T01:49:49.966Z,92.40
2022-11-27T01:52:22.658Z,91.88
2022-11-27T01:54:56.818Z,92.35
2022-11-27T01:57:30.775Z,92.26
2022-11-27T02:00:02.399Z,91.64
2022-11-27T02:02:45.425Z,92.08
2022-11-27T02:05:18.061Z,91.38
2022-11-27T02:07:48.147Z,91.36
2022-11-27T02:10:18.619Z,92.02
2022-11-27T02:12:58.679Z,91.43
2022-11-27T02:15:33.722Z,91.64
2022-11-27T02:18:20.503Z,91.28
2022-11-27T02:20:54.327Z,91.18
2022-11-27T02:23:54.599Z,91.36
2022-11-27T02:27:01.456Z,91.20
2022-11-27T02:29:34.680Z,91.44
2022-11-27T02:32:10.417Z,91.62
2022-11-27T02:34:47.879Z,91.49
2022-11-27T02:37:23.471Z,91.50
2022-11-27T02:39:58.438Z,91.23
2022-11-27T02:42:33.507Z,91.14
2022-11-27T02:45:07.060Z,91.61
2022-11-27T02:47:36.519Z,91.69
2022-11-27T02:50:06.761Z,91.48
2022-11-27T02:52:35.417Z,91.50
2022-11-27T02:55:10.171Z,90.70
2022-11-27T02:57:41.141Z,91.13
2022-11-27T03:00:13.143Z,90.86
2022-11-27T03:02:47.546Z,91.60
2022-11-27T03:05:21.282Z,91.41
2022-11-27T03:07:55.712Z,90.90
2022-11-27T03:10:31.409Z,90.44
2022-11-27T03:13:01.863Z,90.91
2022-11-27T03:15:41.144Z,91.17
2022-11-27T03:18:18.579Z,90.39
2022-11-27T03:20:53.009Z,91.12
2022-11-27T03:23:21.714Z,90.04
2022-11-27T03:25:50.479Z,90.46
2022-11-27T03:28:19.152Z,90.41
2022-11-27T03:30:49.197Z,90.78
2022-11-27T03:33:19.618Z,90.97
2022-11-27T03:35:48.163Z,90.45
2022-11-27T03:38:17.208Z,90.16
2022-11-27T03:40:54.688Z,90.77
2022-11-27T03:43:27.122Z,90.34
2022-11-27T03:46:01.723Z,90.45
2022-11-27T03:48:36.642Z,89.84
2022-11-27T03:51:13.540Z,90.54
2022-11-27T03:53:53.912Z,90.38
2022-11-27T03:56:35.721Z,89.96
2022-11-27T03:59:10.370Z,90.77
2022-11-27T04:01:42.375Z,90.78
2022-11-27T04:04:11.320Z,90.03
2022-11-27T04:06:40.048Z,89.93
2022-11-27T04:09:08.691Z,90.60
2022-11-27T04:11:37.579Z,90.56
2022-11-27T04:14:06.246Z,89.97
2022-11-27T04:16:34.899Z,90.24
2022-11-27T04:19:05.061Z,90.69
2022-11-27T04:21:33.623Z,90.38
2022-11-27T04:24:02.255Z,90.18
2022-11-27T04:26:30.759Z,90.31
2022-11-27T04:28:59.230Z,90.01
2022-11-27T04:31:27.836Z,90.76
2022-11-27T04:33:56.591Z,90.17
2022-11-27T04:36:27.059Z,90.29
2022-11-27T04:38:56.113Z,90.17
2022-11-27T04:41:24.791Z,89.75
2022-11-27T04:43:53.289Z,90.20
2022-11-27T04:46:22.132Z,89.87
2022-11-27T04:48:50.702Z,90.38
2022-11-27T04:51:19.398Z,89.77
2022-11-27T04:53:49.383Z,90.39
2022-11-27T04:56:18.797Z,89.67
2022-11-27T04:58:47.489Z,90.03
2022-11-27T05:01:16.357Z,90.35
2022-11-27T05:03:44.940Z,89.81
2022-11-27T05:06:13.538Z,89.97
2022-11-27T05:08:42.150Z,90.52
2022-11-27T05:11:15.099Z,89.80
2022-11-27T05:13:44.362Z,89.76
2022-11-27T05:16:13.145Z,90.26
2022-11-27T05:18:41.850Z,90.40
2022-11-27T05:21:10.663Z,89.96
2022-11-27T05:23:39.191Z,89.98
2022-11-27T05:26:07.839Z,89.56
2022-11-27T05:28:37.891Z,90.46
2022-11-27T05:31:06.707Z,90.24
2022-11-27T05:33:35.294Z,90.45
2022-11-27T05:36:03.914Z,89.54
2022-11-27T05:38:32.404Z,90.37
2022-11-27T05:41:01.220Z,89.39
2022-11-27T05:43:29.981Z,89.36
2022-11-27T05:45:59.981Z,90.49
2022-11-27T05:48:28.669Z,89.56
2022-11-27T05:50:57.381Z,90.16
2022-11-27T05:53:26.081Z,89.92
2022-11-27T05:55:54.622Z,90.13
2022-11-27T05:58:25.073Z,90.07
2022-11-27T06:00:54.083Z,89.93
2022-11-27T06:03:24.314Z,89.78
2022-11-27T06:05:53.041Z,89.73
2022-11-27T06:08:22.039Z,89.61
2022-11-27T06:10:51.009Z,90.30
2022-11-27T06:13:19.634Z,90.21
2022-11-27T06:15:48.178Z,90.33
2022-11-27T06:18:16.844Z,89.75
2022-11-27T06:20:52.766Z,89.81
2022-11-27T06:23:22.518Z,90.00
2022-11-27T06:25:51.268Z,90.08
2022-11-27T06:28:19.641Z,89.53
2022-11-27T06:30:48.369Z,90.28
2022-11-27T06:33:17.010Z,89.83
2022-11-27T06:35:47.510Z,89.73
2022-11-27T06:38:16.119Z,89.96
2022-11-27T06:40:44.782Z,89.79
2022-11-27T06:43:13.420Z,89.79
2022-11-27T06:45:44.330Z,89.96
2022-11-27T06:48:12.961Z,89.76
2022-11-27T06:50:41.571Z,90.63
2022-11-27T06:53:11.654Z,89.89
2022-11-27T06:55:40.450Z,90.26
2022-11-27T06:58:09.014Z,90.42
2022-11-27T07:00:37.768Z,90.56
2022-11-27T07:03:06.262Z,90.48
2022-11-27T07:05:34.945Z,90.60
2022-11-27T07:08:03.664Z,90.44
2022-11-27T07:10:36.591Z,90.03
2022-11-27T07:13:05.216Z,89.95
2022-11-27T07:15:34.250Z,90.24
2022-11-27T07:18:02.980Z,90.42
2022-11-27T07:20:31.402Z,91.00
2022-11-27T07:23:00.041Z,90.59
2022-11-27T07:25:28.661Z,90.96
2022-11-27T07:27:59.192Z,90.54
2022-11-27T07:30:27.879Z,90.98
2022-11-27T07:32:56.584Z,90.13
2022-11-27T07:35:25.273Z,90.38
2022-11-27T07:37:53.711Z,90.94
2022-11-27T07:40:22.633Z,90.90
2022-11-27T07:42:51.531Z,90.52
2022-11-27T07:45:21.801Z,90.63
2022-11-27T07:47:50.356Z,90.39
2022-11-27T07:50:19.152Z,90.65
2022-11-27T07:52:47.722Z,90.57
2022-11-27T07:55:16.455Z,90.52
2022-11-27T07:57:45.494Z,90.28
2022-11-27T08:00:14.814Z,89.94
2022-11-27T08:02:44.700Z,90.17
2022-11-27T08:05:13.511Z,90.01
2022-11-27T08:07:42.163Z,90.27
2022-11-27T08:10:11.064Z,89.91
2022-11-27T08:12:39.593Z,90.08
2022-11-27T08:15:09.349Z,89.65
2022-11-27T08:17:37.850Z,89.49
2022-11-27T08:20:09.274Z,89.53
2022-11-27T08:22:37.876Z,89.34
2022-11-27T08:25:07.325Z,89.37
2022-11-27T08:27:36.494Z,88.86
2022-11-27T08:30:05.744Z,88.90
2022-11-27T08:32:34.536Z,88.65
2022-11-27T08:35:03.148Z,88.98
2022-11-27T08:37:33.187Z,88.39
2022-11-27T08:40:01.812Z,88.70
2022-11-27T08:42:30.386Z,88.47
2022-11-27T08:44:58.995Z,88.50
2022-11-27T08:47:27.787Z,88.56
2022-11-27T08:49:56.334Z,88.26
2022-11-27T08:52:24.766Z,87.50
2022-11-27T08:54:57.748Z,87.55
2022-11-27T08:57:26.866Z,87.50
2022-11-27T08:59:55.392Z,87.04
2022-11-27T09:02:24.017Z,86.90
2022-11-27T09:04:52.809Z,86.49
2022-11-27T09:07:21.518Z,86.50
2022-11-27T09:09:50.533Z,85.41
2022-11-27T09:12:21.241Z,85.54
2022-11-27T09:14:50.997Z,85.21
2022-11-27T09:17:19.752Z,84.95
2022-11-27T09:19:48.753Z,83.57
2022-11-27T09:22:17.290Z,82.92
2022-11-27T09:24:46.496Z,82.73
2022-11-27T09:27:14.939Z,83.14
2022-11-27T09:29:44.909Z,81.90
2022-11-27T09:32:13.662Z,80.92
2022-11-27T09:34:42.652Z,80.60
2022-11-27T09:37:11.591Z,80.07
2022-11-27T09:39:39.999Z,79.55
2022-11-27T09:42:11.094Z,79.56
2022-11-27T09:44:45.602Z,79.06
2022-11-27T09:47:21.343Z,78.87
2022-11-27T09:49:54.031Z,78.72
2022-11-27T09:52:29.846Z,77.96
2022-11-27T09:55:03.085Z,77.16
2022-11-27T09:57:36.019Z,77.78
2022-11-27T10:00:08.188Z,77.01
2022-11-27T10:02:38.363Z,76.84
2022-11-27T10:05:17.636Z,75.64
2022-11-27T10:08:07.204Z,75.84
2022-11-27T10:10:44.936Z,75.55
2022-11-27T10:13:29.955Z,74.67
2022-11-27T10:16:06.624Z,74.27
2022-11-27T10:18:46.797Z,74.81
2022-11-27T10:21:17.935Z,73.75
2022-11-27T10:23:55.817Z,73.52
2022-11-27T10:26:30.418Z,72.82
2022-11-27T10:29:05.232Z,72.54
2022-11-27T10:31:38.896Z,72.87
2022-11-27T10:34:34.447Z,71.91
2022-11-27T10:37:07.742Z,71.41
2022-11-27T10:39:41.353Z,71.15
2022-11-27T10:42:15.006Z,70.80
2022-11-27T10:44:49.049Z,70.28
2022-11-27T10:47:20.235Z,69.94
2022-11-27T10:49:50.192Z,69.73
2022-11-27T10:52:20.522Z,69.22
2022-11-27T10:54:54.922Z,68.55
2022-11-27T10:57:39.114Z,69.02
2022-11-27T11:00:13.704Z,68.37
2022-11-27T11:02:42.928Z,67.59
2022-11-27T11:08:19.615Z,66.94
2022-11-27T11:10:53.152Z,66.30
2022-11-27T11:13:27.677Z,66.20
2022-11-27T11:16:09.804Z,65.42
2022-11-27T11:18:45.190Z,65.23
2022-11-27T11:21:19.793Z,65.04
2022-11-27T11:23:59.089Z,64.75
2022-11-27T11:26:31.069Z,63.76
2022-11-27T11:29:03.432Z,63.32
2022-11-27T11:31:35.369Z,62.65
2022-11-27T11:34:08.568Z,62.17
2022-11-27T11:36:38.586Z,61.61
2022-11-27T11:39:07.256Z,62.27
2022-11-27T11:41:39.676Z,61.67
2022-11-27T11:44:22.201Z,60.72
2022-11-27T11:46:54.555Z,59.99
2022-11-27T11:49:27.775Z,59.94
2022-11-27T11:52:22.270Z,59.45
2022-11-27T11:55:00.612Z,59.21
2022-11-27T11:57:50.423Z,58.40
2022-11-27T12:00:28.070Z,58.27
2022-11-27T12:03:18.080Z,58.03
2022-11-27T12:06:07.581Z,58.10
2022-11-27T12:08:51.322Z,57.46
2022-11-27T12:11:23.441Z,56.24
2022-11-27T12:14:05.325Z,54.14
2022-11-27T12:16:42.876Z,52.25
2022-11-27T12:19:29.757Z,51.17
2022-11-27T12:22:05.055Z,51.03
2022-11-27T12:24:45.385Z,50.17
2022-11-27T12:27:24.824Z,48.83
2022-11-27T12:30:07.214Z,48.17
2022-11-27T12:32:57.424Z,48.30
2022-11-27T12:35:35.156Z,48.37
2022-11-27T12:38:29.497Z,49.00
2022-11-27T12:41:11.675Z,52.36
2022-11-27T12:43:45.538Z,56.06
2022-11-27T12:46:20.216Z,58.43
2022-11-27T12:48:55.153Z,60.54
2022-11-27T12:51:28.810Z,62.45
2022-11-27T12:54:02.877Z,64.15
2022-11-27T12:56:39.342Z,64.81
2022-11-27T12:59:17.918Z,66.58
2022-11-27T13:01:53.547Z,67.99
2022-11-27T13:04:28.585Z,68.34
2022-11-27T13:07:03.697Z,69.49
2022-11-27T13:09:43.955Z,70.24
2022-11-27T13:12:21.295Z,70.66
2022-11-27T13:14:56.477Z,70.88
2022-11-27T13:17:32.167Z,71.90
2022-11-27T13:20:02.394Z,72.88
2022-11-27T13:22:35.154Z,72.50
2022-11-27T13:25:04.931Z,73.03
2022-11-27T13:27:36.765Z,73.61
2022-11-27T13:30:08.299Z,73.64
2022-11-27T13:32:42.047Z,73.96
2022-11-27T13:35:23.309Z,74.66
2022-11-27T13:37:59.578Z,74.28
2022-11-27T13:40:32.922Z,74.48
2022-11-27T13:43:07.964Z,74.89
2022-11-27T13:45:38.920Z,74.99
2022-11-27T13:48:28.117Z,76.37
2022-11-27T13:50:57.828Z,76.00
2022-11-27T13:53:32.951Z,76.78
2022-11-27T13:56:01.762Z,75.97
2022-11-27T13:58:36.118Z,76.73
2022-11-27T14:01:17.495Z,77.62
2022-11-27T14:03:46.621Z,77.78
2022-11-27T14:06:23.192Z,77.96
2022-11-27T14:08:57.089Z,77.60
2022-11-27T14:11:41.447Z,77.92
2022-11-27T14:14:21.685Z,77.69
2022-11-27T14:16:58.051Z,78.39
2022-11-27T14:19:34.056Z,78.22
2022-11-27T14:22:15.433Z,78.73
2022-11-27T14:24:46.092Z,79.18
2022-11-27T14:27:20.592Z,79.02
2022-11-27T14:29:51.863Z,79.23
2022-11-27T14:32:22.329Z,79.05
2022-11-27T14:34:50.896Z,79.48
2022-11-27T14:37:25.920Z,79.18
2022-11-27T14:39:55.270Z,79.37
2022-11-27T14:42:28.901Z,79.07
2022-11-27T14:45:10.116Z,79.64
2022-11-27T14:47:50.209Z,79.63
2022-11-27T14:50:19.746Z,79.77
2022-11-27T14:52:53.730Z,79.96
2022-11-27T14:55:23.487Z,79.65
2022-11-27T14:57:53.737Z,80.05
2022-11-27T15:00:27.350Z,79.89
2022-11-27T15:02:56.880Z,80.33
2022-11-27T15:05:28.720Z,80.37
2022-11-27T15:08:00.135Z,80.35
2022-11-27T15:10:33.780Z,80.51
2022-11-27T15:13:04.327Z,80.38
2022-11-27T15:15:40.342Z,80.30
2022-11-27T15:18:10.320Z,80.29
2022-11-27T15:20:41.717Z,80.44
2022-11-27T15:23:18.523Z,80.43
2022-11-27T15:25:49.925Z,80.98
2022-11-27T15:28:30.834Z,80.72
2022-11-27T15:31:01.313Z,81.02
2022-11-27T15:33:32.315Z,81.33
2022-11-27T15:36:16.723Z,81.31
2022-11-27T15:38:46.680Z,81.11
2022-11-27T15:41:22.917Z,81.15
2022-11-27T15:43:51.756Z,81.56
2022-11-27T15:46:26.522Z,81.55
2022-11-27T15:48:55.281Z,82.09
2022-11-27T15:51:24.049Z,81.91
2022-11-27T15:53:52.753Z,81.91
2022-11-27T15:56:21.333Z,82.38
2022-11-27T15:58:49.764Z,82.43
2022-11-27T16:01:18.539Z,81.90
2022-11-27T16:03:48.576Z,82.26
2022-11-27T16:06:17.143Z,82.70
2022-11-27T16:08:45.754Z,82.42
2022-11-27T16:11:19.653Z,82.45
2022-11-27T16:13:48.365Z,83.19
2022-11-27T16:16:17.129Z,82.75
2022-11-27T16:18:46.165Z,83.37
2022-11-27T16:21:18.019Z,83.03
2022-11-27T16:23:47.117Z,82.70
2022-11-27T16:26:16.040Z,83.28
2022-11-27T16:28:44.734Z,82.82
2022-11-27T16:31:15.346Z,82.59
2022-11-27T16:33:44.016Z,83.29
2022-11-27T16:36:18.524Z,82.74
2022-11-27T16:38:48.905Z,83.03
2022-11-27T16:41:20.664Z,83.14
2022-11-27T16:43:51.449Z,82.80
2022-11-27T16:46:26.951Z,83.30
2022-11-27T16:48:56.624Z,83.67
2022-11-27T16:51:28.742Z,82.98
2022-11-27T16:53:59.932Z,83.15
2022-11-27T16:56:30.773Z,82.91
2022-11-27T16:59:03.155Z,83.70
2022-11-27T17:01:36.310Z,83.63
2022-11-27T17:04:09.262Z,83.83
2022-11-27T17:06:40.371Z,83.82
2022-11-27T17:09:10.322Z,83.32
2022-11-27T17:11:42.092Z,83.74
2022-11-27T17:14:11.270Z,83.65
2022-11-27T17:16:42.909Z,83.82
2022-11-27T17:19:14.119Z,84.09
2022-11-27T17:21:44.556Z,83.31
2022-11-27T17:24:15.968Z,84.14
2022-11-27T17:26:48.143Z,83.62
2022-11-27T17:29:19.068Z,83.63
2022-11-27T17:31:48.022Z,83.92
2022-11-27T17:34:18.563Z,84.15
2022-11-27T17:36:53.784Z,83.22
2022-11-27T17:39:23.368Z,83.57
2022-11-27T17:41:51.943Z,83.63
2022-11-27T17:44:20.584Z,83.79
2022-11-27T17:46:50.892Z,84.70
2022-11-27T17:49:22.323Z,84.29
2022-11-27T17:51:53.852Z,83.90
2022-11-27T17:54:22.876Z,85.12
2022-11-27T17:56:52.773Z,84.12
2022-11-27T17:59:22.598Z,85.42
2022-11-27T18:01:53.283Z,84.76
2022-11-27T18:04:23.474Z,85.46
2022-11-27T18:06:53.574Z,85.66
2022-11-27T18:09:25.213Z,85.88
2022-11-27T18:11:57.491Z,86.16
2022-11-27T18:14:26.425Z,85.27
2022-11-27T18:16:55.116Z,85.63
2022-11-27T18:19:23.724Z,85.94
2022-11-27T18:21:54.015Z,85.89
2022-11-27T18:24:24.248Z,86.48
2022-11-27T18:27:10.360Z,86.51
2022-11-27T18:29:43.010Z,86.35
2022-11-27T18:32:13.335Z,86.67
2022-11-27T18:34:42.494Z,86.67
2022-11-27T18:37:13.393Z,87.09
2022-11-27T18:39:44.593Z,86.84
2022-11-27T18:42:13.623Z,86.84
2022-11-27T18:44:44.959Z,87.39
2022-11-27T18:47:14.791Z,86.76
2022-11-27T18:49:45.646Z,87.29
2022-11-27T18:52:16.865Z,87.21
2022-11-27T18:54:45.714Z,87.85
2022-11-27T18:57:14.294Z,87.78
2022-11-27T18:59:45.068Z,87.95
2022-11-27T19:02:14.775Z,88.20
2022-11-27T19:04:45.062Z,87.40
2022-11-27T19:07:15.852Z,87.93
2022-11-27T19:09:45.007Z,87.51
2022-11-27T19:12:14.053Z,88.11
2022-11-27T19:14:42.833Z,88.15
2022-11-27T19:17:12.061Z,88.12
2022-11-27T19:19:56.458Z,87.84
2022-11-27T19:22:28.233Z,88.46
2022-11-27T19:24:58.445Z,87.88
2022-11-27T19:27:27.198Z,87.95
2022-11-27T19:29:56.011Z,87.92
2022-11-27T19:32:24.636Z,88.42
2022-11-27T19:34:53.360Z,88.30
2022-11-27T19:37:33.938Z,88.07
2022-11-27T19:40:07.301Z,88.69
2022-11-27T19:42:36.310Z,88.33
2022-11-27T19:45:05.214Z,88.81
2022-11-27T19:47:34.221Z,89.10
2022-11-27T19:50:02.836Z,89.01
2022-11-27T19:52:32.596Z,88.67
2022-11-27T19:55:01.196Z,89.05
2022-11-27T19:57:31.494Z,88.99
2022-11-27T20:00:00.266Z,89.22
2022-11-27T20:02:30.531Z,88.79
2022-11-27T20:05:00.118Z,88.71
2022-11-27T20:07:28.785Z,88.51
2022-11-27T20:09:57.631Z,88.82
2022-11-27T20:12:26.845Z,88.87
2022-11-27T20:14:58.936Z,88.42
2022-11-27T20:17:27.596Z,88.55
2022-11-27T20:19:56.214Z,88.54
2022-11-27T20:22:25.145Z,87.93
2022-11-27T20:25:17.810Z,88.07
2022-11-27T20:27:43.459Z,87.84
2022-11-27T20:30:14.072Z,87.68
2022-11-27T20:32:42.881Z,88.02
2022-11-27T20:35:11.614Z,87.52
2022-11-27T20:37:40.333Z,88.06
2022-11-27T20:40:10.439Z,88.20
2022-11-27T20:42:39.292Z,88.26
2022-11-27T20:45:09.384Z,88.11
2022-11-27T20:47:39.513Z,87.39
2022-11-27T20:50:09.380Z,87.60
2022-11-27T20:52:37.723Z,87.71
2022-11-27T20:55:07.441Z,88.45
2022-11-27T20:57:35.804Z,88.16
2022-11-27T21:00:05.431Z,88.16
2022-11-27T21:02:36.819Z,88.59
2022-11-27T21:05:07.519Z,87.90
2022-11-27T21:07:37.779Z,88.27
2022-11-27T21:10:08.023Z,88.22
2022-11-27T21:12:36.844Z,88.63
2022-11-27T21:15:06.705Z,88.49
2022-11-27T21:17:35.543Z,88.73
2022-11-27T21:20:04.599Z,88.82
2022-11-27T21:22:35.238Z,88.90
2022-11-27T21:25:03.954Z,88.97
2022-11-27T21:27:32.582Z,88.59
2022-11-27T21:30:01.365Z,89.03
2022-11-27T21:32:30.193Z,89.13
2022-11-27T21:34:59.065Z,88.80
2022-11-27T21:37:27.602Z,88.55
2022-11-27T21:39:58.440Z,89.20
2022-11-27T21:42:29.631Z,88.75
2022-11-27T21:44:59.690Z,89.18
2022-11-27T21:47:28.430Z,88.74
2022-11-27T21:49:56.994Z,88.88
2022-11-27T21:52:25.754Z,89.34
2022-11-27T21:54:54.544Z,89.07
2022-11-27T21:57:24.823Z,88.80
2022-11-27T21:59:53.693Z,89.40
2022-11-27T22:02:22.287Z,88.84
2022-11-27T22:04:51.612Z,88.87
2022-11-27T22:07:20.116Z,89.06
2022-11-27T22:09:48.755Z,89.41
2022-11-27T22:12:17.370Z,89.08
2022-11-27T22:14:50.660Z,88.99
2022-11-27T22:17:23.896Z,89.09
2022-11-27T22:19:54.423Z,88.79
2022-11-27T22:22:23.083Z,89.19
2022-11-27T22:24:51.753Z,89.00
2022-11-27T22:27:20.410Z,89.35
2022-11-27T22:29:51.294Z,89.17
2022-11-27T22:32:20.176Z,88.96
2022-11-27T22:34:49.024Z,88.59
2022-11-27T22:37:18.234Z,89.05
2022-11-27T22:39:46.720Z,88.89
2022-11-27T22:42:15.292Z,89.07
2022-11-27T22:44:44.216Z,89.38
2022-11-27T22:47:14.583Z,88.88
2022-11-27T22:49:43.407Z,88.84
2022-11-27T22:52:12.163Z,88.85
2022-11-27T22:54:41.474Z,88.90
2022-11-27T22:57:10.253Z,89.29
2022-11-27T22:59:38.912Z,89.77
2022-11-27T23:02:08.497Z,89.17
2022-11-27T23:04:39.422Z,89.24
2022-11-27T23:07:09.177Z,89.59
2022-11-27T23:09:38.254Z,89.18
2022-11-27T23:12:07.392Z,89.16
2022-11-27T23:14:36.072Z,89.76
2022-11-27T23:17:06.084Z,89.33
2022-11-27T23:19:34.752Z,90.01
2022-11-27T23:22:04.837Z,89.86
2022-11-27T23:24:33.472Z,89.89
2022-11-27T23:27:02.192Z,89.47
2022-11-27T23:29:30.816Z,89.93
2022-11-27T23:31:59.545Z,89.70
2022-11-27T23:34:28.210Z,89.46
2022-11-27T23:36:56.807Z,90.17
2022-11-27T23:39:26.842Z,90.32
2022-11-27T23:41:55.377Z,89.65
2022-11-27T23:44:24.012Z,89.69
2022-11-27T23:46:52.672Z,89.73
2022-11-27T23:49:21.520Z,89.86
2022-11-27T23:51:50.140Z,89.85
2022-11-27T23:54:18.752Z,90.23
2022-11-27T23:56:52.524Z,90.20
2022-11-27T23:59:21.161Z,89.93
